createdAt,value
2023-03-10T00:03:39.559Z,6.30
2023-03-10T00:11:48.239Z,9.95
2023-03-10T00:19:53.579Z,8.93
2023-03-10T00:28:01.582Z,8.93
2023-03-10T00:36:10.106Z,8.63
2023-03-10T00:44:19.167Z,8.20
2023-03-10T00:52:24.743Z,8.23
2023-03-10T01:00:32.747Z,8.75
2023-03-10T01:08:38.284Z,8.15
2023-03-10T01:16:46.393Z,6.90
2023-03-10T01:24:53.145Z,9.57
2023-03-10T01:33:01.172Z,10.30
2023-03-10T01:41:07.445Z,9.63
2023-03-10T01:49:25.699Z,9.38
2023-03-10T01:57:36.590Z,8.48
2023-03-10T02:05:48.867Z,9.02
2023-03-10T02:13:55.191Z,8.02
2023-03-10T02:22:08.016Z,8.68
2023-03-10T02:30:20.557Z,7.88
2023-03-10T02:38:26.151Z,7.70
2023-03-10T02:46:34.687Z,7.95
2023-03-10T02:54:40.222Z,6.22
2023-03-10T03:02:48.308Z,5.85
2023-03-10T03:10:54.818Z,5.60
2023-03-10T03:19:03.016Z,5.53
2023-03-10T03:27:09.242Z,5.15
2023-03-10T03:35:20.362Z,5.13
2023-03-10T03:43:27.770Z,5.18
2023-03-10T03:51:40.723Z,4.95
2023-03-10T04:07:55.325Z,5.03
2023-03-10T04:16:02.389Z,5.00
2023-03-10T04:24:16.234Z,6.03
2023-03-10T04:32:22.131Z,6.95
2023-03-10T04:40:30.315Z,5.70
2023-03-10T04:48:36.212Z,5.35
2023-03-10T04:56:45.380Z,5.10
2023-03-10T05:04:51.098Z,4.90
2023-03-10T05:12:59.625Z,5.78
2023-03-10T05:21:05.985Z,6.05
2023-03-10T05:29:14.329Z,5.30
2023-03-10T05:37:24.978Z,5.40
2023-03-10T05:45:33.954Z,5.40
2023-03-10T05:53:41.190Z,5.78
2023-03-10T06:01:53.349Z,5.70
2023-03-10T06:09:59.593Z,6.88
2023-03-10T06:18:07.850Z,6.18
2023-03-10T06:26:17.772Z,6.50
2023-03-10T06:34:25.836Z,6.38
2023-03-10T06:42:31.296Z,6.05
2023-03-10T06:50:42.961Z,7.60
2023-03-10T06:58:48.627Z,5.47
2023-03-10T07:06:56.699Z,4.53
2023-03-10T07:15:02.425Z,4.57
2023-03-10T07:23:12.504Z,4.78
2023-03-10T07:31:18.278Z,5.47
2023-03-10T07:39:26.417Z,5.10
2023-03-10T07:47:31.876Z,4.50
2023-03-10T07:55:44.015Z,4.50
2023-03-10T08:03:50.072Z,4.55
2023-03-10T08:12:00.514Z,4.65
2023-03-10T08:20:07.078Z,5.10
2023-03-10T08:28:15.192Z,3.80
2023-03-10T08:36:24.402Z,3.53
2023-03-10T08:44:32.331Z,4.35
2023-03-10T08:52:39.148Z,2.63
2023-03-10T09:00:47.746Z,2.20
2023-03-10T09:08:53.343Z,2.90
2023-03-10T09:17:01.541Z,2.13
2023-03-10T09:25:07.766Z,2.17
2023-03-10T09:33:19.026Z,1.90
2023-03-10T09:41:44.461Z,1.85
2023-03-10T09:50:05.864Z,1.45
2023-03-10T09:58:17.017Z,2.08
2023-03-10T10:06:29.841Z,1.70
2023-03-10T10:14:38.450Z,1.13
2023-03-10T10:22:49.339Z,0.98
2023-03-10T10:30:57.875Z,1.05
2023-03-10T10:39:28.260Z,0.93
2023-03-10T10:47:38.182Z,0.93
2023-03-10T10:55:48.020Z,12.02
2023-03-10T11:04:08.202Z,2.13
2023-03-10T11:12:22.252Z,0.80
2023-03-10T11:20:32.981Z,0.70
2023-03-10T11:28:53.391Z,1.17
2023-03-10T11:37:07.291Z,0.88
2023-03-10T11:45:29.422Z,0.77
2023-03-10T11:53:41.936Z,0.77
2023-03-10T12:01:54.224Z,0.77
2023-03-10T12:10:02.115Z,0.90
2023-03-10T12:18:11.287Z,0.95
2023-03-10T12:26:16.853Z,1.23
2023-03-10T12:34:28.129Z,1.40
2023-03-10T12:42:35.396Z,1.17
2023-03-10T12:50:52.875Z,1.15
2023-03-10T12:59:01.520Z,1.30
2023-03-10T13:07:19.064Z,1.20
2023-03-10T13:15:27.476Z,1.70
2023-03-10T13:23:38.711Z,1.40
2023-03-10T13:31:44.643Z,1.85
2023-03-10T13:39:52.801Z,1.75
2023-03-10T13:47:58.401Z,1.70
2023-03-10T13:56:17.482Z,1.70
2023-03-10T14:04:42.619Z,1.45
2023-03-10T14:13:15.928Z,1.65
2023-03-10T14:21:33.810Z,1.48
2023-03-10T14:29:44.282Z,1.70
2023-03-10T14:37:49.965Z,1.65
2023-03-10T14:46:00.394Z,1.50
2023-03-10T14:54:06.504Z,1.90
2023-03-10T15:02:22.171Z,2.70
2023-03-10T15:10:30.314Z,2.20
2023-03-10T15:18:38.211Z,2.40
2023-03-10T15:27:04.050Z,3.72
2023-03-10T15:35:16.474Z,3.00
2023-03-10T15:43:24.349Z,3.08
2023-03-10T15:51:32.836Z,3.20
2023-03-10T15:59:38.362Z,3.05
2023-03-10T16:07:46.554Z,2.58
2023-03-10T16:15:52.885Z,3.17
2023-03-10T16:24:06.401Z,2.90
2023-03-10T16:32:12.583Z,3.42
2023-03-10T16:40:20.987Z,3.38
2023-03-10T16:48:30.174Z,3.42
2023-03-10T16:56:39.547Z,2.90
2023-03-10T17:04:45.526Z,3.83
2023-03-10T17:12:53.533Z,3.42
2023-03-10T17:20:58.928Z,3.00
2023-03-10T17:29:07.533Z,2.92
2023-03-10T17:37:13.283Z,3.15
2023-03-10T17:45:21.296Z,3.13
2023-03-10T17:53:27.033Z,3.55
2023-03-10T18:01:37.717Z,3.05
2023-03-10T18:09:43.178Z,3.03
2023-03-10T18:17:52.426Z,2.90
2023-03-10T18:25:59.037Z,3.05
2023-03-10T18:34:10.366Z,3.30
2023-03-10T18:42:16.009Z,3.65
2023-03-10T18:50:24.136Z,3.20
2023-03-10T18:58:30.103Z,2.80
2023-03-10T19:06:38.118Z,2.45
2023-03-10T19:14:44.851Z,1.90
2023-03-10T19:22:54.192Z,1.73
2023-03-10T19:30:59.754Z,1.30
2023-03-10T19:47:33.933Z,1.60
2023-03-10T19:55:43.615Z,1.10
2023-03-10T20:03:49.357Z,1.00
2023-03-10T20:11:57.619Z,1.15
2023-03-10T20:20:07.901Z,0.98
2023-03-10T20:28:16.680Z,1.20
2023-03-10T20:36:22.191Z,1.20
2023-03-10T20:44:32.351Z,0.80
2023-03-10T20:52:38.300Z,0.70
2023-03-10T21:00:49.626Z,0.73
2023-03-10T21:08:55.161Z,0.82
2023-03-10T21:17:04.138Z,0.90
2023-03-10T21:25:12.769Z,0.70
2023-03-10T21:33:23.201Z,1.20
2023-03-10T21:41:30.574Z,0.93
2023-03-10T21:49:38.542Z,0.80
2023-03-10T21:57:43.970Z,1.30
2023-03-10T22:05:52.101Z,1.40
2023-03-10T22:13:58.261Z,2.28
2023-03-10T22:22:06.299Z,2.90
2023-03-10T22:30:14.147Z,3.25
2023-03-10T22:38:22.830Z,4.47
2023-03-10T22:46:28.390Z,5.35
2023-03-10T22:54:36.802Z,5.60
2023-03-10T23:02:42.214Z,5.30
2023-03-10T23:10:50.341Z,5.68
2023-03-10T23:18:58.388Z,4.65
2023-03-10T23:27:06.620Z,7.07
2023-03-10T23:35:15.230Z,7.75
2023-03-10T23:43:23.349Z,8.40
2023-03-10T23:51:29.243Z,7.72
2023-03-10T23:59:37.178Z,8.43
